Time;durP1;ratioP1;P1;durP2;ratioP2;P2;SDS_P1;SDS_P2;PMS_P1;PMS_P2;Temp;Humidity;BMP_temperature;BMP_pressure;BME280_temperature;BME280_humidity;BME280_pressure;Samples;Min_cycle;Max_cycle;Signal;HPM_P1;HPM_P2
2022/01/18 00:01:16;;;;;;;134.93;104.45;;;8.60;99.30;;;;;;5006153;28;20133;-82
2022/01/18 00:03:43;;;;;;;136.70;106.93;;;8.60;99.40;;;;;;5012599;28;20137;-82
2022/01/18 00:06:11;;;;;;;140.70;106.18;;;8.60;99.40;;;;;;4996601;28;20073;-82
2022/01/18 00:08:38;;;;;;;128.65;103.32;;;8.60;99.40;;;;;;5001723;28;20137;-82
2022/01/18 00:11:06;;;;;;;135.30;104.15;;;8.60;99.40;;;;;;5022519;28;20541;-82
2022/01/18 00:13:40;;;;;;;133.10;105.15;;;8.60;99.40;;;;;;5021994;28;20050;-82
2022/01/18 00:16:27;;;;;;;148.75;107.20;;;8.60;99.40;;;;;;4999006;28;20104;-82
2022/01/18 00:19:00;;;;;;;135.23;107.22;;;8.60;99.40;;;;;;5014279;28;20496;-82
2022/01/18 00:21:35;;;;;;;134.93;105.78;;;8.60;99.40;;;;;;5024916;28;20053;-82
2022/01/18 00:24:02;;;;;;;130.30;105.70;;;8.60;99.40;;;;;;5015611;28;20546;-82
2022/01/18 00:26:31;;;;;;;142.57;105.80;;;8.60;99.40;;;;;;4998961;28;20142;-82
2022/01/18 00:29:05;;;;;;;134.05;106.28;;;8.60;99.40;;;;;;5015024;28;20061;-82
2022/01/18 00:31:56;;;;;;;131.95;107.78;;;8.60;99.40;;;;;;5017845;28;20042;-82
2022/01/18 00:34:28;;;;;;;133.73;105.63;;;8.60;99.40;;;;;;5018689;28;20792;-82
2022/01/18 00:37:00;;;;;;;127.70;106.32;;;8.60;99.40;;;;;;4998900;28;20137;-82
2022/01/18 00:39:28;;;;;;;132.07;104.28;;;8.50;99.40;;;;;;5002970;28;20050;-82
2022/01/18 00:41:55;;;;;;;134.90;104.90;;;8.50;99.40;;;;;;5012653;28;20060;-82
2022/01/18 00:44:22;;;;;;;139.52;107.50;;;8.60;99.40;;;;;;5013058;28;20532;-82
2022/01/18 00:46:50;;;;;;;126.82;105.72;;;8.50;99.30;;;;;;5015069;28;20536;-82
2022/01/18 00:49:19;;;;;;;135.98;104.47;;;8.50;99.40;;;;;;5018395;28;20060;-82
2022/01/18 00:51:54;;;;;;;131.30;106.80;;;8.50;99.40;;;;;;5038542;28;20140;-82
2022/01/18 00:54:25;;;;;;;135.10;104.97;;;8.50;99.40;;;;;;5002629;28;20490;-82
2022/01/18 00:56:53;;;;;;;134.23;105.22;;;8.50;99.30;;;;;;5015256;28;20065;-81
2022/01/18 00:59:21;;;;;;;129.73;104.38;;;8.50;99.30;;;;;;5032599;28;20058;-82
2022/01/18 01:01:49;;;;;;;126.68;102.57;;;8.50;99.40;;;;;;5018819;28;20642;-82
2022/01/18 01:04:17;;;;;;;137.35;104.65;;;8.40;99.30;;;;;;5018519;28;20049;-82
2022/01/18 01:06:44;;;;;;;126.45;103.63;;;8.40;99.30;;;;;;5001985;28;20057;-82
2022/01/18 01:09:12;;;;;;;134.20;102.97;;;8.40;99.30;;;;;;5008777;28;20581;-82
2022/01/18 01:11:40;;;;;;;126.22;104.25;;;8.40;99.30;;;;;;5019444;28;20046;-82
2022/01/18 01:14:12;;;;;;;137.20;103.13;;;8.40;99.30;;;;;;5024778;28;20555;-82
2022/01/18 01:16:51;;;;;;;130.43;102.80;;;8.40;99.30;;;;;;5037692;28;20204;-82
2022/01/18 01:36:18;;;;;;;128.32;104.38;;;8.30;99.40;;;;;;4980014;28;20128;-82
2022/01/18 01:42:01;;;;;;;132.13;103.55;;;8.30;99.40;;;;;;5033588;28;20079;-82
2022/01/18 01:44:42;;;;;;;127.55;103.13;;;8.30;99.40;;;;;;5002812;28;20049;-82
2022/01/18 01:47:10;;;;;;;125.75;101.72;;;8.30;99.40;;;;;;5037064;28;20045;-82
2022/01/18 01:49:38;;;;;;;123.78;105.32;;;8.30;99.40;;;;;;5029778;28;20050;-82
2022/01/18 01:52:07;;;;;;;120.25;104.90;;;8.30;99.50;;;;;;5020905;28;20049;-82
2022/01/18 01:54:34;;;;;;;122.70;104.15;;;8.30;99.40;;;;;;5044820;28;20058;-82
2022/01/18 01:57:02;;;;;;;;;;;8.40;99.50;;;;;;5023625;28;20054;-82
2022/01/18 01:59:30;;;;;;;124.47;105.22;;;8.30;99.40;;;;;;5017728;28;19925;-82
2022/01/18 02:02:02;;;;;;;123.75;103.70;;;8.30;99.40;;;;;;5050539;28;20053;-81
2022/01/18 02:04:29;;;;;;;118.57;102.32;;;8.20;99.40;;;;;;4999224;28;20499;-82
2022/01/18 02:06:56;;;;;;;128.50;105.60;;;8.30;99.40;;;;;;5016520;28;20515;-82
2022/01/18 02:09:23;;;;;;;123.05;103.68;;;8.30;99.40;;;;;;5023352;28;20049;-84
2022/01/18 02:11:51;;;;;;;;;;;8.30;99.40;;;;;;5009921;28;20049;-82
2022/01/18 02:14:22;;;;;;;126.90;106.75;;;8.30;99.40;;;;;;5064044;28;20020;-82
2022/01/18 02:22:20;;;;;;;122.38;105.03;;;8.20;99.40;;;;;;5008117;28;20142;-82
2022/01/18 02:24:47;;;;;;;119.28;103.47;;;8.20;99.50;;;;;;5002163;28;20049;-82
2022/01/18 02:27:14;;;;;;;123.97;103.88;;;8.20;99.50;;;;;;4999821;28;20615;-82
2022/01/18 02:29:42;;;;;;;129.32;104.57;;;8.20;99.50;;;;;;4996731;28;20050;-82
2022/01/18 02:32:09;;;;;;;129.30;105.25;;;8.20;99.50;;;;;;4994992;28;20514;-82
2022/01/18 02:34:37;;;;;;;117.85;102.18;;;8.20;99.50;;;;;;5016264;28;20050;-82
2022/01/18 02:37:04;;;;;;;121.32;105.47;;;8.20;99.50;;;;;;4999654;28;20046;-82
2022/01/18 02:39:34;;;;;;;117.75;103.65;;;8.20;99.50;;;;;;4998454;28;20158;-82
2022/01/18 02:42:04;;;;;;;119.80;105.55;;;8.20;99.50;;;;;;4987114;28;20049;-83
2022/01/18 02:44:33;;;;;;;115.47;102.55;;;8.20;99.50;;;;;;5004522;28;20543;-82
2022/01/18 02:47:00;;;;;;;119.43;105.43;;;8.20;99.50;;;;;;5002555;28;20057;-82
2022/01/18 02:49:28;;;;;;;120.55;103.93;;;8.20;99.50;;;;;;5020563;28;20593;-82
2022/01/18 02:51:56;;;;;;;115.47;102.85;;;8.20;99.50;;;;;;5001600;28;20073;-82
2022/01/18 02:54:23;;;;;;;116.30;103.65;;;8.20;99.40;;;;;;5035189;28;20801;-82
2022/01/18 02:56:56;;;;;;;114.82;101.93;;;8.20;99.50;;;;;;5000196;28;20050;-82
2022/01/18 02:59:30;;;;;;;116.70;104.25;;;8.20;99.50;;;;;;4985048;28;20060;-82
2022/01/18 03:04:44;;;;;;;117.05;104.38;;;8.20;99.50;;;;;;5015643;28;20092;-82
2022/01/18 03:07:12;;;;;;;112.88;101.03;;;8.20;99.50;;;;;;4998971;28;20084;-82
2022/01/18 03:09:39;;;;;;;112.57;100.47;;;8.20;99.50;;;;;;4999191;28;20140;-82
2022/01/18 03:12:10;;;;;;;119.30;101.95;;;8.20;99.50;;;;;;4999296;28;20145;-82
2022/01/18 03:14:38;;;;;;;114.25;101.85;;;8.20;99.50;;;;;;4995120;28;20105;-82
2022/01/18 03:17:06;;;;;;;112.57;99.78;;;8.20;99.50;;;;;;5016113;28;20085;-82
2022/01/18 03:19:33;;;;;;;116.68;101.47;;;8.20;99.60;;;;;;5016376;28;20062;-82
2022/01/18 03:22:01;;;;;;;121.75;101.25;;;8.20;99.60;;;;;;5016405;28;20089;-82
2022/01/18 03:24:47;;;;;;;116.35;100.88;;;8.20;99.60;;;;;;5012116;28;20046;-81
2022/01/18 03:30:03;;;;;;;121.57;100.90;;;8.20;99.60;;;;;;5021232;28;20057;-82
2022/01/18 03:32:30;;;;;;;121.95;102.50;;;8.10;99.60;;;;;;5001547;28;20046;-82
2022/01/18 03:34:57;;;;;;;122.63;100.63;;;8.10;99.60;;;;;;5032615;28;20056;-81
2022/01/18 03:37:23;;;;;;;;;;;8.10;99.70;;;;;;5016100;28;20540;-82
2022/01/18 03:39:50;;;;;;;120.22;101.20;;;8.10;99.60;;;;;;5032975;28;20021;-82
2022/01/18 03:45:08;;;;;;;120.10;103.03;;;8.10;99.80;;;;;;5030756;28;19976;-82
2022/01/18 03:47:36;;;;;;;120.43;101.72;;;8.10;99.70;;;;;;4999519;28;20050;-82
2022/01/18 03:50:05;;;;;;;115.13;100.53;;;8.10;99.70;;;;;;4998758;28;20046;-82
2022/01/18 03:52:32;;;;;;;114.43;99.65;;;8.10;99.70;;;;;;4999471;28;20049;-82
2022/01/18 03:55:00;;;;;;;112.53;100.72;;;8.10;99.90;;;;;;4999783;28;20096;-82
2022/01/18 03:57:28;;;;;;;114.60;100.28;;;8.20;99.80;;;;;;5015788;28;20547;-82
2022/01/18 03:59:55;;;;;;;114.70;102.47;;;8.20;99.70;;;;;;4999535;28;20058;-82
2022/01/18 04:02:22;;;;;;;114.35;100.00;;;8.20;99.90;;;;;;5015778;28;20563;-82
2022/01/18 04:04:49;;;;;;;;;;;8.20;99.70;;;;;;5016418;28;20050;-81
2022/01/18 04:07:16;;;;;;;116.47;103.38;;;8.20;99.70;;;;;;5027366;28;19935;-82
2022/01/18 04:09:43;;;;;;;113.97;101.43;;;8.10;99.70;;;;;;5014618;28;20148;-82
2022/01/18 04:12:11;;;;;;;115.00;102.85;;;8.10;99.70;;;;;;5038831;28;20063;-82
2022/01/18 04:14:39;;;;;;;114.03;101.75;;;8.10;99.70;;;;;;5031204;28;20071;-82
2022/01/18 04:17:14;;;;;;;116.00;103.53;;;8.10;99.70;;;;;;5002922;28;20135;-82
2022/01/18 04:28:03;;;;;;;115.18;103.03;;;8.20;99.70;;;;;;4984721;28;20054;-82
2022/01/18 04:30:32;;;;;;;114.72;102.72;;;8.20;99.70;;;;;;5029327;28;20054;-82
2022/01/18 04:32:59;;;;;;;117.20;104.32;;;8.20;99.70;;;;;;5031994;28;20147;-82
2022/01/18 04:35:26;;;;;;;;;;;8.20;99.60;;;;;;5022269;28;20045;-82
2022/01/18 04:37:53;;;;;;;115.90;103.57;;;8.20;99.60;;;;;;5018945;28;19929;-82
2022/01/18 04:40:26;;;;;;;115.57;103.05;;;8.20;99.60;;;;;;5002189;28;20049;-82
2022/01/18 04:48:29;;;;;;;115.72;103.65;;;8.20;99.60;;;;;;5014885;28;20590;-82
2022/01/18 04:50:58;;;;;;;113.68;101.90;;;8.20;99.60;;;;;;5035190;28;20057;-82
2022/01/18 04:53:26;;;;;;;116.38;103.63;;;8.20;99.60;;;;;;5023022;28;20137;-82
2022/01/18 04:55:56;;;;;;;115.88;103.65;;;8.20;99.50;;;;;;5018699;28;20090;-82
2022/01/18 04:58:25;;;;;;;115.07;103.13;;;8.20;99.50;;;;;;5018434;28;20054;-82
2022/01/18 05:00:55;;;;;;;113.88;101.35;;;8.20;99.50;;;;;;5017288;28;20060;-82
2022/01/18 05:03:22;;;;;;;115.68;103.40;;;8.20;99.40;;;;;;5002291;28;20065;-82
2022/01/18 05:05:52;;;;;;;114.80;102.45;;;8.20;99.40;;;;;;5012996;28;20103;-82
2022/01/18 05:08:19;;;;;;;117.90;105.63;;;8.20;99.40;;;;;;5031590;28;20054;-82
2022/01/18 05:10:52;;;;;;;116.93;104.32;;;8.20;99.40;;;;;;5005030;28;20054;-81
2022/01/18 05:13:37;;;;;;;113.03;100.68;;;8.20;99.40;;;;;;5028805;28;20085;-82
2022/01/18 05:16:22;;;;;;;111.72;99.88;;;8.20;99.40;;;;;;5000718;28;20050;-82
2022/01/18 05:19:02;;;;;;;112.85;100.90;;;8.10;99.40;;;;;;5034165;28;20076;-82
2022/01/18 05:21:33;;;;;;;113.38;101.43;;;8.10;99.40;;;;;;5037955;28;20056;-82
2022/01/18 05:23:59;;;;;;;113.25;101.43;;;8.10;99.40;;;;;;5021302;28;20051;-82
2022/01/18 05:26:28;;;;;;;113.25;101.30;;;8.10;99.40;;;;;;5016019;28;20236;-82
2022/01/18 05:28:57;;;;;;;112.18;100.75;;;8.10;99.40;;;;;;5036603;28;20110;-82
2022/01/18 05:31:25;;;;;;;117.00;105.30;;;8.10;99.40;;;;;;5037853;28;20072;-82
2022/01/18 05:33:53;;;;;;;117.40;105.75;;;8.10;99.40;;;;;;5035163;28;20059;-82
2022/01/18 05:36:22;;;;;;;111.05;99.75;;;8.10;99.40;;;;;;5003924;28;20511;-83
2022/01/18 05:38:49;;;;;;;115.15;103.57;;;8.10;99.40;;;;;;5017828;28;20058;-82
2022/01/18 05:41:17;;;;;;;115.63;103.85;;;8.00;99.30;;;;;;5001611;28;20052;-82
2022/01/18 05:43:45;;;;;;;113.95;102.28;;;8.10;99.30;;;;;;5018168;28;20064;-82
2022/01/18 05:46:12;;;;;;;113.35;101.25;;;8.10;99.30;;;;;;5033843;28;20054;-82
2022/01/18 05:48:40;;;;;;;113.72;101.95;;;8.10;99.30;;;;;;5025251;28;20042;-81
2022/01/18 05:51:07;;;;;;;116.30;104.45;;;8.00;99.30;;;;;;5037319;28;20141;-82
2022/01/18 05:53:36;;;;;;;;;;;8.00;99.20;;;;;;5017102;28;20129;-82
2022/01/18 05:56:04;;;;;;;115.10;103.32;;;8.00;99.20;;;;;;5050905;28;19926;-81
2022/01/18 05:58:31;;;;;;;115.70;103.90;;;7.90;99.20;;;;;;5017655;28;20060;-82
2022/01/18 06:00:58;;;;;;;114.90;103.22;;;7.80;99.20;;;;;;5001296;28;20050;-82
2022/01/18 06:03:31;;;;;;;117.18;104.30;;;7.80;99.30;;;;;;4997816;28;20054;-81
2022/01/18 06:08:44;;;;;;;114.80;103.10;;;7.80;99.30;;;;;;5030562;28;20109;-82
2022/01/18 06:11:11;;;;;;;116.47;104.35;;;7.70;99.40;;;;;;5015225;28;20284;-81
2022/01/18 06:13:39;;;;;;;116.10;104.03;;;7.70;99.40;;;;;;5023723;28;20068;-82
2022/01/18 06:16:07;;;;;;;116.50;104.45;;;7.70;99.40;;;;;;5007327;28;20797;-82
2022/01/18 06:18:34;;;;;;;116.30;104.80;;;7.70;99.40;;;;;;5021244;28;20523;-82
2022/01/18 06:21:02;;;;;;;;;;;7.70;99.40;;;;;;5020971;28;20049;-81
2022/01/18 06:23:29;;;;;;;116.22;104.38;;;7.70;99.40;;;;;;5013193;28;19934;-81
2022/01/18 06:25:58;;;;;;;114.82;103.05;;;7.60;99.40;;;;;;5005886;28;20077;-82
2022/01/18 06:28:25;;;;;;;116.97;104.70;;;7.60;99.50;;;;;;5028182;28;20053;-82
2022/01/18 06:30:52;;;;;;;;;;;7.60;99.50;;;;;;5026645;28;20049;-82
2022/01/18 06:33:18;;;;;;;;;;;7.60;99.50;;;;;;5002132;28;19925;-82
2022/01/18 06:35:46;;;;;;;116.30;103.90;;;7.60;99.50;;;;;;5000944;28;19973;-82
2022/01/18 06:38:17;;;;;;;116.22;104.43;;;7.60;99.50;;;;;;5000012;28;20512;-82
2022/01/18 06:40:45;;;;;;;115.18;103.00;;;7.60;99.50;;;;;;5000525;28;20137;-81
2022/01/18 06:43:12;;;;;;;117.05;105.10;;;7.60;99.50;;;;;;5016753;28;20524;-82
2022/01/18 06:45:38;;;;;;;;;;;7.60;99.50;;;;;;4999346;28;20088;-81
2022/01/18 06:48:06;;;;;;;116.25;104.43;;;7.50;99.50;;;;;;5028346;28;19929;-82
2022/01/18 06:50:32;;;;;;;;;;;7.50;99.50;;;;;;5015664;28;20049;-82
2022/01/18 06:53:00;;;;;;;115.45;103.60;;;7.50;99.50;;;;;;5020234;28;19925;-82
2022/01/18 06:55:28;;;;;;;116.00;103.82;;;7.50;99.50;;;;;;5032154;28;20054;-81
2022/01/18 06:57:56;;;;;;;116.03;104.15;;;7.50;99.50;;;;;;5019453;28;20602;-82
2022/01/18 07:00:23;;;;;;;117.75;105.40;;;7.50;99.50;;;;;;5035685;28;20155;-82
2022/01/18 07:02:50;;;;;;;115.80;103.85;;;7.50;99.50;;;;;;5019449;28;20050;-82
2022/01/18 07:05:17;;;;;;;115.85;104.18;;;7.40;99.50;;;;;;5015995;28;20057;-80
2022/01/18 07:07:47;;;;;;;116.35;104.47;;;7.40;99.60;;;;;;5034582;28;20046;-84
2022/01/18 07:10:14;;;;;;;114.72;103.30;;;7.40;99.60;;;;;;5021529;28;20508;-82
2022/01/18 07:12:43;;;;;;;117.25;104.82;;;7.40;99.60;;;;;;4991529;28;20070;-82
2022/01/18 07:15:11;;;;;;;114.28;102.30;;;7.30;99.60;;;;;;4998670;28;20046;-84
2022/01/18 07:17:40;;;;;;;114.03;102.28;;;7.30;99.60;;;;;;5012547;28;20054;-80
2022/01/18 07:20:10;;;;;;;114.60;102.50;;;7.30;99.70;;;;;;5013181;28;20133;-79
2022/01/18 07:22:38;;;;;;;116.55;104.47;;;7.30;99.70;;;;;;5014753;28;20052;-81
2022/01/18 07:25:11;;;;;;;114.88;103.50;;;7.30;99.70;;;;;;5016401;28;20993;-82
2022/01/18 07:27:38;;;;;;;117.85;105.82;;;7.30;99.70;;;;;;4999658;28;20546;-80
2022/01/18 07:30:09;;;;;;;119.85;107.45;;;7.30;99.70;;;;;;5000635;28;20053;-82
2022/01/18 07:32:36;;;;;;;119.03;106.72;;;7.30;99.70;;;;;;5017036;28;20073;-82
2022/01/18 07:35:03;;;;;;;117.82;106.18;;;7.40;99.70;;;;;;5010925;28;20050;-81
2022/01/18 07:37:31;;;;;;;117.35;105.10;;;7.40;99.70;;;;;;5014736;28;20065;-85
2022/01/18 07:39:58;;;;;;;116.45;104.63;;;7.40;99.90;;;;;;5006540;28;20085;-86
2022/01/18 07:42:25;;;;;;;;;;;7.40;99.70;;;;;;5062904;28;20141;-86
2022/01/18 07:44:52;;;;;;;;;;;7.30;99.60;;;;;;5000683;28;20048;-84
2022/01/18 07:47:21;;;;;;;118.18;105.72;;;7.30;99.60;;;;;;4999126;28;20399;-83
2022/01/18 07:49:48;;;;;;;117.88;105.47;;;7.30;99.80;;;;;;4999086;28;20056;-83
2022/01/18 07:52:15;;;;;;;118.72;106.43;;;7.30;99.60;;;;;;5015816;28;20176;-83
2022/01/18 07:54:42;;;;;;;121.50;108.70;;;7.30;99.60;;;;;;4998352;28;20149;-83
2022/01/18 07:57:11;;;;;;;118.85;106.80;;;7.30;99.60;;;;;;4998128;28;20495;-84
2022/01/18 07:59:38;;;;;;;117.30;105.45;;;7.30;99.70;;;;;;4999701;28;20057;-83
2022/01/18 08:02:05;;;;;;;;;;;7.30;99.70;;;;;;5000135;28;20144;-83
2022/01/18 08:04:33;;;;;;;118.72;106.00;;;7.20;99.60;;;;;;5000012;28;19925;-83
2022/01/18 08:07:00;;;;;;;117.10;105.13;;;7.20;99.70;;;;;;5015755;28;20170;-83
2022/01/18 08:09:27;;;;;;;;;;;7.20;99.70;;;;;;5027906;28;20073;-83
2022/01/18 08:11:55;;;;;;;117.80;105.13;;;7.20;99.70;;;;;;5025656;28;20025;-83
2022/01/18 08:14:22;;;;;;;116.20;104.47;;;7.20;99.70;;;;;;5017250;28;20058;-83
2022/01/18 08:17:00;;;;;;;117.18;104.85;;;7.20;99.70;;;;;;4999353;28;20042;-82
2022/01/18 08:19:28;;;;;;;117.13;105.25;;;7.10;99.70;;;;;;4999416;28;20140;-83
2022/01/18 08:21:57;;;;;;;116.05;103.97;;;7.10;99.80;;;;;;5015871;28;20054;-83
2022/01/18 08:24:24;;;;;;;116.32;104.55;;;7.20;99.80;;;;;;4999377;28;20112;-83
2022/01/18 08:26:51;;;;;;;116.28;104.28;;;7.10;99.80;;;;;;5015441;28;20060;-83
2022/01/18 08:29:18;;;;;;;;;;;7.20;99.90;;;;;;4999568;28;20053;-83
2022/01/18 08:31:47;;;;;;;119.07;106.68;;;7.20;99.80;;;;;;4997761;28;19969;-85
2022/01/18 08:34:14;;;;;;;117.50;105.45;;;7.10;99.80;;;;;;5022745;28;20136;-82
2022/01/18 08:36:41;;;;;;;119.10;106.88;;;7.20;99.90;;;;;;5018024;28;20059;-81
2022/01/18 08:39:11;;;;;;;119.25;106.90;;;7.20;99.90;;;;;;5027061;28;20041;-81
2022/01/18 08:42:17;;;;;;;118.88;106.45;;;7.20;99.90;;;;;;5032069;28;20045;-81
2022/01/18 08:44:44;;;;;;;119.43;107.10;;;7.20;99.90;;;;;;5003808;28;20046;-81
2022/01/18 08:47:12;;;;;;;118.35;106.15;;;7.20;99.90;;;;;;5008626;28;20053;-81
2022/01/18 08:49:39;;;;;;;120.53;107.97;;;7.20;99.90;;;;;;4998169;28;20050;-81
2022/01/18 08:52:06;;;;;;;118.22;106.07;;;7.10;99.90;;;;;;5016105;28;20078;-81
2022/01/18 08:54:35;;;;;;;118.45;106.38;;;7.10;99.90;;;;;;5002252;28;20080;-82
2022/01/18 08:57:02;;;;;;;116.18;104.30;;;7.10;99.90;;;;;;5029491;28;20053;-81
2022/01/18 08:59:30;;;;;;;;;;;7.10;99.90;;;;;;5033791;28;20642;-82
2022/01/18 09:01:59;;;;;;;118.53;106.25;;;7.10;99.90;;;;;;5034055;28;19932;-82
2022/01/18 09:04:26;;;;;;;119.32;106.78;;;7.10;99.90;;;;;;5017276;28;20081;-82
2022/01/18 09:06:53;;;;;;;122.82;110.00;;;7.10;99.90;;;;;;4999989;28;20539;-80
2022/01/18 09:09:20;;;;;;;;;;;7.10;99.90;;;;;;5018419;28;20170;-82
2022/01/18 09:11:49;;;;;;;122.57;107.35;;;7.10;99.90;;;;;;5002547;28;19925;-81
2022/01/18 09:14:17;;;;;;;120.38;107.65;;;7.10;99.90;;;;;;5029225;28;20050;-81
2022/01/18 09:16:44;;;;;;;119.85;107.45;;;7.10;99.90;;;;;;5001836;28;20084;-81
2022/01/18 09:19:11;;;;;;;;;;;7.10;99.90;;;;;;4998556;28;20057;-80
2022/01/18 09:21:38;;;;;;;121.65;108.63;;;7.10;99.90;;;;;;5038069;28;19932;-81
2022/01/18 09:24:06;;;;;;;;;;;7.10;99.90;;;;;;5018629;28;20523;-79
2022/01/18 09:26:33;;;;;;;122.57;109.05;;;7.10;99.90;;;;;;5034788;28;20004;-81
2022/01/18 09:29:01;;;;;;;121.25;108.45;;;7.10;99.90;;;;;;5007744;28;20045;-81
2022/01/18 09:31:29;;;;;;;123.05;110.40;;;7.10;99.90;;;;;;5034108;28;20124;-82
2022/01/18 09:33:56;;;;;;;125.95;112.68;;;7.10;99.90;;;;;;5017199;28;20054;-80
2022/01/18 09:36:23;;;;;;;;;;;7.10;99.90;;;;;;5013807;28;20053;-81
2022/01/18 09:38:50;;;;;;;124.13;111.30;;;7.10;99.90;;;;;;5037288;28;19925;-81
2022/01/18 09:41:20;;;;;;;124.95;111.93;;;7.10;99.90;;;;;;5035474;28;20069;-81
2022/01/18 09:43:47;;;;;;;123.63;110.57;;;7.10;99.90;;;;;;5026248;28;20046;-81
2022/01/18 09:46:16;;;;;;;124.15;111.25;;;7.10;99.90;;;;;;5001191;28;20129;-80
2022/01/18 09:48:43;;;;;;;123.10;110.55;;;7.10;99.90;;;;;;5016878;28;20557;-81
2022/01/18 09:51:11;;;;;;;;;;;7.10;99.90;;;;;;5001892;28;20060;-84
2022/01/18 09:53:38;;;;;;;123.97;110.97;;;7.10;99.90;;;;;;5002481;28;20029;-84
2022/01/18 09:56:05;;;;;;;123.10;110.00;;;7.10;99.90;;;;;;5012804;28;20056;-85
2022/01/18 09:58:33;;;;;;;120.95;108.10;;;7.20;99.90;;;;;;5006583;28;20140;-86
2022/01/18 10:01:00;;;;;;;123.63;110.30;;;7.20;99.90;;;;;;5001542;28;20119;-83
2022/01/18 10:03:33;;;;;;;120.97;108.28;;;7.20;99.90;;;;;;5017975;28;20113;-83
2022/01/18 10:06:01;;;;;;;121.03;108.13;;;7.20;99.90;;;;;;5010183;28;20074;-85
2022/01/18 10:08:29;;;;;;;124.18;111.03;;;7.30;99.90;;;;;;5001973;28;20136;-85
2022/01/18 10:11:02;;;;;;;121.10;108.78;;;7.20;99.90;;;;;;5017723;28;20050;-84
2022/01/18 10:13:31;;;;;;;119.90;107.82;;;7.20;99.90;;;;;;4982544;28;20097;-82
2022/01/18 10:16:04;;;;;;;118.22;106.32;;;7.20;99.90;;;;;;4993399;28;20074;-83
2022/01/18 10:18:46;;;;;;;122.80;110.20;;;7.30;99.90;;;;;;4998441;28;20133;-82
2022/01/18 10:21:15;;;;;;;119.13;106.95;;;7.20;99.90;;;;;;5017826;28;20050;-82
2022/01/18 10:23:48;;;;;;;119.72;107.10;;;7.30;99.90;;;;;;5006999;28;20571;-82
2022/01/18 10:26:22;;;;;;;120.85;108.72;;;7.20;99.90;;;;;;4998901;28;20050;-82
2022/01/18 10:29:00;;;;;;;122.43;109.45;;;7.30;99.90;;;;;;5034161;28;20481;-82
2022/01/18 10:31:35;;;;;;;118.88;107.13;;;7.30;99.90;;;;;;4998176;28;20143;-82
2022/01/18 10:34:28;;;;;;;121.05;108.63;;;7.30;99.90;;;;;;5028136;28;20057;-81
2022/01/18 10:36:59;;;;;;;118.68;106.32;;;7.30;99.90;;;;;;4999779;28;20050;-81
2022/01/18 10:39:29;;;;;;;118.82;107.05;;;7.30;99.90;;;;;;5018787;28;20077;-80
2022/01/18 10:41:57;;;;;;;120.65;108.60;;;7.30;99.90;;;;;;5014433;28;20111;-78
2022/01/18 10:44:24;;;;;;;120.63;108.38;;;7.30;99.90;;;;;;4994780;28;20508;-79
2022/01/18 10:46:54;;;;;;;118.90;106.43;;;7.40;99.90;;;;;;5017008;28;20045;-81
2022/01/18 10:49:36;;;;;;;118.97;107.18;;;7.40;99.90;;;;;;5015122;28;20046;-84
2022/01/18 10:52:06;;;;;;;119.93;107.70;;;7.40;99.90;;;;;;5037140;28;20412;-81
2022/01/18 10:54:44;;;;;;;118.80;106.60;;;7.40;99.90;;;;;;5007077;28;20180;-85
2022/01/18 10:57:14;;;;;;;120.85;108.47;;;7.40;99.90;;;;;;4999259;28;20131;-78
2022/01/18 10:59:42;;;;;;;121.07;108.90;;;7.40;99.90;;;;;;5015547;28;20140;-82
2022/01/18 11:02:15;;;;;;;117.10;105.00;;;7.40;99.90;;;;;;5000021;28;20360;-82
2022/01/18 11:04:46;;;;;;;120.13;108.13;;;7.50;99.90;;;;;;5003096;28;20053;-82
2022/01/18 11:07:15;;;;;;;120.22;108.20;;;7.40;99.80;;;;;;5029862;28;20133;-83
2022/01/18 11:09:42;;;;;;;118.22;106.55;;;7.40;99.90;;;;;;5011977;28;20054;-82
2022/01/18 11:12:11;;;;;;;;;;;7.40;99.90;;;;;;5025347;28;20056;-83
2022/01/18 11:14:47;;;;;;;115.00;103.22;;;7.40;99.80;;;;;;5035855;28;19929;-84
2022/01/18 11:17:22;;;;;;;116.35;104.53;;;7.40;99.90;;;;;;5030640;28;20171;-91
2022/01/18 11:19:55;;;;;;;115.80;103.72;;;7.40;99.90;;;;;;5013044;28;20149;-76
2022/01/18 11:22:25;;;;;;;114.53;102.90;;;7.50;99.90;;;;;;5010022;28;20054;-91
2022/01/18 11:24:59;;;;;;;113.38;101.95;;;7.50;99.90;;;;;;5003167;28;20092;-88
2022/01/18 11:27:29;;;;;;;113.03;101.82;;;7.50;99.80;;;;;;5002092;28;20140;-87
2022/01/18 11:30:25;;;;;;;113.55;102.32;;;7.50;99.60;;;;;;5006145;28;20050;-93
2022/01/18 11:32:56;;;;;;;115.90;104.00;;;7.50;99.50;;;;;;4987639;28;20054;-86
2022/01/18 11:35:37;;;;;;;113.75;102.15;;;7.50;99.60;;;;;;4997233;28;20106;-83
2022/01/18 11:38:11;;;;;;;113.90;102.22;;;7.50;99.50;;;;;;5015626;28;20524;-83
2022/01/18 11:40:48;;;;;;;116.53;104.75;;;7.50;99.50;;;;;;5005317;28;20078;-85
2022/01/18 11:43:16;;;;;;;112.38;101.13;;;7.50;99.60;;;;;;5020115;28;20205;-87
2022/01/18 11:45:44;;;;;;;114.10;102.45;;;7.50;99.60;;;;;;5032924;28;20136;-84
2022/01/18 11:48:17;;;;;;;114.03;102.35;;;7.50;99.70;;;;;;5030250;28;20598;-84
2022/01/18 11:50:50;;;;;;;115.57;104.30;;;7.50;99.70;;;;;;5014603;28;20050;-83
2022/01/18 11:53:29;;;;;;;114.47;103.10;;;7.60;99.60;;;;;;5009117;28;20078;-84
2022/01/18 11:55:58;;;;;;;114.05;102.78;;;7.60;99.40;;;;;;4999835;28;20488;-83
2022/01/18 11:58:26;;;;;;;114.70;103.15;;;7.60;99.60;;;;;;5000710;28;20050;-87
2022/01/18 12:00:56;;;;;;;115.75;104.43;;;7.60;99.50;;;;;;5017020;28;20137;-84
2022/01/18 12:03:27;;;;;;;114.32;102.95;;;7.60;99.50;;;;;;5016548;28;20112;-85
2022/01/18 12:05:59;;;;;;;113.53;102.28;;;7.60;99.60;;;;;;5000943;28;20085;-86
2022/01/18 12:08:51;;;;;;;113.93;102.63;;;7.60;99.50;;;;;;5009710;28;20085;-87
2022/01/18 12:11:36;;;;;;;117.10;105.25;;;7.60;99.30;;;;;;4999567;28;20502;-82
2022/01/18 12:14:05;;;;;;;113.63;102.28;;;7.60;99.30;;;;;;4999075;28;20076;-83
2022/01/18 12:16:35;;;;;;;113.22;101.68;;;7.70;99.30;;;;;;5032278;28;20054;-80
2022/01/18 12:19:05;;;;;;;113.22;101.55;;;7.60;99.20;;;;;;5006753;28;20041;-83
2022/01/18 12:21:36;;;;;;;113.13;102.05;;;7.60;99.20;;;;;;5008052;28;20787;-85
2022/01/18 12:24:21;;;;;;;114.35;102.88;;;7.70;99.10;;;;;;4997011;28;20053;-81
2022/01/18 12:26:59;;;;;;;113.20;102.05;;;7.60;99.00;;;;;;5003217;28;20054;-84
2022/01/18 12:29:47;;;;;;;114.28;102.88;;;7.60;99.00;;;;;;5003094;28;20046;-83
2022/01/18 12:32:40;;;;;;;114.78;103.25;;;7.60;98.80;;;;;;5036480;28;20112;-85
2022/01/18 12:35:26;;;;;;;116.53;105.13;;;7.60;98.90;;;;;;5039230;28;20077;-81
2022/01/18 12:37:55;;;;;;;114.20;102.38;;;7.60;98.90;;;;;;5002109;28;20539;-81
2022/01/18 12:40:34;;;;;;;113.40;101.97;;;7.60;98.90;;;;;;5024753;28;20142;-87
2022/01/18 12:46:16;;;;;;;114.70;103.00;;;7.50;99.00;;;;;;4933215;28;20063;-86
2022/01/18 12:48:44;;;;;;;115.65;103.95;;;7.60;99.00;;;;;;4916156;28;20508;-83
2022/01/18 12:51:13;;;;;;;113.05;102.00;;;7.50;98.90;;;;;;4986497;28;20053;-82
2022/01/18 12:53:42;;;;;;;115.75;103.93;;;7.50;98.90;;;;;;5031080;28;20555;-82
2022/01/18 12:56:10;;;;;;;116.68;104.82;;;7.60;98.90;;;;;;5017529;28;20050;-82
2022/01/18 12:58:39;;;;;;;116.68;104.72;;;7.50;98.90;;;;;;5020990;28;20049;-83
2022/01/18 13:01:08;;;;;;;114.32;102.88;;;7.50;98.80;;;;;;5020397;28;20475;-83
2022/01/18 13:03:39;;;;;;;116.20;104.53;;;7.50;98.80;;;;;;5020725;28;20144;-85
2022/01/18 13:06:08;;;;;;;116.43;104.80;;;7.50;98.70;;;;;;5025737;28;20061;-86
2022/01/18 13:08:47;;;;;;;117.15;105.28;;;7.50;98.80;;;;;;4999024;28;20054;-83
2022/01/18 13:11:16;;;;;;;118.13;105.85;;;7.40;98.80;;;;;;4998814;28;20058;-83
2022/01/18 13:13:52;;;;;;;116.97;105.05;;;7.40;98.90;;;;;;5021035;28;20053;-83
2022/01/18 13:25:02;;;;;;;120.82;108.07;;;7.40;99.00;;;;;;5030658;28;20163;-82
2022/01/18 13:27:41;;;;;;;116.05;103.93;;;7.40;99.10;;;;;;5008666;28;20046;-80
2022/01/18 13:30:17;;;;;;;117.78;105.70;;;7.40;99.10;;;;;;5023128;28;20176;-84
2022/01/18 13:32:45;;;;;;;117.77;105.70;;;7.30;99.10;;;;;;5012046;28;20128;-81
2022/01/18 13:35:14;;;;;;;117.75;105.68;;;7.40;99.10;;;;;;5036991;28;20277;-81
2022/01/18 13:37:49;;;;;;;117.18;105.22;;;7.40;99.10;;;;;;4999508;28;20105;-82
2022/01/18 13:40:19;;;;;;;117.55;105.18;;;7.40;99.10;;;;;;5011629;28;20057;-82
2022/01/18 13:42:49;;;;;;;119.15;106.90;;;7.40;99.10;;;;;;5021637;28;20582;-83